createdAt,value
2022-11-28T00:01:22.291Z,13.55
2022-11-28T00:03:49.263Z,14.73
2022-11-28T00:06:16.395Z,13.13
2022-11-28T00:08:43.273Z,14.57
2022-11-28T00:11:12.395Z,12.48
2022-11-28T00:13:39.528Z,13.35
2022-11-28T00:16:08.962Z,13.43
2022-11-28T00:18:35.855Z,14.63
2022-11-28T00:21:04.761Z,13.90
2022-11-28T00:23:31.889Z,15.50
2022-11-28T00:26:00.109Z,12.35
2022-11-28T00:28:26.603Z,12.93
2022-11-28T00:30:53.141Z,13.48
2022-11-28T00:33:19.650Z,15.88
2022-11-28T00:35:46.554Z,13.00
2022-11-28T00:38:13.058Z,14.02
2022-11-28T00:40:39.636Z,14.57
2022-11-28T00:43:06.154Z,14.00
2022-11-28T00:45:32.651Z,16.55
2022-11-28T00:47:59.256Z,12.20
2022-11-28T00:50:25.737Z,16.83
2022-11-28T00:52:52.172Z,15.40
2022-11-28T00:55:18.728Z,13.75
2022-11-28T00:57:46.412Z,16.35
2022-11-28T01:00:13.440Z,17.25
2022-11-28T01:02:40.004Z,18.15
2022-11-28T01:05:07.068Z,14.65
2022-11-28T01:07:33.898Z,14.70
2022-11-28T01:10:00.579Z,17.92
2022-11-28T01:12:27.050Z,12.70
2022-11-28T01:14:53.719Z,17.23
2022-11-28T01:17:20.161Z,15.10
2022-11-28T01:19:46.589Z,18.08
2022-11-28T01:22:13.115Z,13.68
2022-11-28T01:24:39.735Z,14.73
2022-11-28T01:27:06.463Z,13.05
2022-11-28T01:29:32.930Z,12.45
2022-11-28T01:31:59.464Z,12.38
2022-11-28T01:34:25.943Z,14.15
2022-11-28T01:36:52.400Z,13.82
2022-11-28T01:39:18.862Z,16.10
2022-11-28T01:41:45.340Z,14.88
2022-11-28T01:44:14.737Z,15.50
2022-11-28T01:46:42.231Z,16.20
2022-11-28T01:49:12.964Z,14.30
2022-11-28T01:51:46.060Z,16.50
2022-11-28T01:54:13.969Z,17.95
2022-11-28T01:56:56.849Z,17.52
2022-11-28T01:59:27.053Z,15.88
2022-11-28T02:01:53.820Z,14.43
2022-11-28T02:04:20.450Z,14.55
2022-11-28T02:06:46.923Z,16.23
2022-11-28T02:09:15.468Z,15.75
2022-11-28T02:11:56.596Z,15.10
2022-11-28T02:14:50.304Z,14.23
2022-11-28T02:17:55.216Z,14.98
2022-11-28T02:20:56.114Z,11.30
2022-11-28T02:23:28.357Z,14.77
2022-11-28T02:26:16.422Z,11.63
2022-11-28T02:28:48.880Z,8.93
2022-11-28T02:31:33.479Z,13.52
2022-11-28T02:34:23.511Z,13.93
2022-11-28T02:37:06.430Z,18.35
2022-11-28T02:39:45.210Z,10.52
2022-11-28T02:42:18.227Z,13.07
2022-11-28T02:44:50.301Z,13.10
2022-11-28T02:47:32.496Z,18.13
2022-11-28T02:50:08.956Z,13.52
2022-11-28T02:52:43.311Z,18.17
2022-11-28T02:55:11.436Z,14.45
2022-11-28T02:57:58.149Z,9.88
2022-11-28T03:00:27.143Z,14.27
2022-11-28T03:03:19.530Z,16.65
2022-11-28T03:06:15.856Z,13.02
2022-11-28T03:09:06.660Z,16.02
2022-11-28T03:11:44.296Z,10.60
2022-11-28T03:14:38.787Z,14.68
2022-11-28T03:17:23.534Z,12.73
2022-11-28T03:20:08.420Z,15.38
2022-11-28T03:22:50.791Z,16.25
2022-11-28T03:25:46.380Z,13.68
2022-11-28T03:28:23.421Z,17.58
2022-11-28T03:33:37.323Z,19.15
2022-11-28T03:36:19.537Z,23.17
2022-11-28T03:38:50.641Z,20.60
2022-11-28T03:41:41.063Z,22.23
2022-11-28T03:44:14.692Z,16.85
2022-11-28T03:46:46.758Z,17.45
2022-11-28T03:49:20.675Z,20.50
2022-11-28T03:51:55.938Z,15.65
2022-11-28T03:54:28.695Z,16.10
2022-11-28T03:57:12.971Z,19.83
2022-11-28T03:59:46.928Z,15.55
2022-11-28T04:02:23.311Z,15.73
2022-11-28T04:05:06.860Z,17.90
2022-11-28T04:07:39.334Z,22.45
2022-11-28T04:10:21.932Z,18.30
2022-11-28T04:13:21.457Z,15.52
2022-11-28T04:15:57.286Z,18.30
2022-11-28T04:19:14.815Z,17.88
2022-11-28T04:21:41.194Z,15.15
2022-11-28T04:24:14.932Z,15.63
2022-11-28T04:26:55.912Z,16.83
2022-11-28T04:29:23.902Z,15.90
2022-11-28T04:31:55.594Z,16.52
2022-11-28T04:34:24.159Z,15.02
2022-11-28T04:36:52.344Z,19.42
2022-11-28T04:39:22.394Z,17.83
2022-11-28T04:41:55.390Z,17.08
2022-11-28T04:44:27.880Z,16.00
2022-11-28T04:46:56.898Z,16.38
2022-11-28T04:49:25.401Z,15.57
2022-11-28T04:52:09.949Z,15.18
2022-11-28T04:55:00.748Z,16.55
2022-11-28T04:57:33.042Z,15.88
2022-11-28T05:00:04.427Z,17.17
2022-11-28T05:02:32.403Z,15.32
2022-11-28T05:04:59.694Z,17.10
2022-11-28T05:07:26.331Z,17.40
2022-11-28T05:09:52.904Z,14.07
2022-11-28T05:12:19.366Z,17.33
2022-11-28T05:14:45.804Z,13.25
2022-11-28T05:17:13.344Z,14.48
2022-11-28T05:19:39.782Z,15.80
2022-11-28T05:22:06.425Z,14.10
2022-11-28T05:24:32.877Z,18.67
2022-11-28T05:26:59.547Z,23.67
2022-11-28T05:29:26.041Z,18.13
2022-11-28T05:31:52.589Z,14.68
2022-11-28T05:34:19.142Z,17.88
2022-11-28T05:36:45.548Z,17.27
2022-11-28T05:39:11.996Z,21.15
2022-11-28T05:41:38.438Z,19.08
2022-11-28T05:44:04.885Z,17.13
2022-11-28T05:46:31.337Z,15.65
2022-11-28T05:48:57.889Z,18.33
2022-11-28T05:51:24.803Z,17.48
2022-11-28T05:53:51.294Z,16.20
2022-11-28T05:56:20.011Z,18.15
2022-11-28T05:58:46.755Z,16.90
2022-11-28T06:01:14.528Z,18.65
2022-11-28T06:03:41.799Z,15.05
2022-11-28T06:06:12.249Z,16.40
2022-11-28T06:08:38.718Z,17.52
2022-11-28T06:11:05.603Z,18.13
2022-11-28T06:13:32.114Z,18.80
2022-11-28T06:15:58.590Z,15.73
2022-11-28T06:18:25.028Z,22.08
2022-11-28T06:20:51.482Z,18.42
2022-11-28T06:23:17.997Z,17.65
2022-11-28T06:25:44.484Z,18.67
2022-11-28T06:28:11.034Z,21.48
2022-11-28T06:30:37.606Z,20.05
2022-11-28T06:33:04.128Z,18.50
2022-11-28T06:35:30.606Z,18.88
2022-11-28T06:37:57.086Z,17.17
2022-11-28T06:40:23.557Z,16.83
2022-11-28T06:42:51.095Z,18.13
2022-11-28T06:45:18.044Z,14.75
2022-11-28T06:47:44.648Z,16.33
2022-11-28T06:50:11.304Z,14.73
2022-11-28T06:52:37.819Z,15.95
2022-11-28T06:55:04.752Z,14.00
2022-11-28T06:57:32.640Z,11.82
2022-11-28T06:59:59.173Z,10.35
2022-11-28T07:02:27.505Z,9.45
2022-11-28T07:04:54.033Z,12.60
2022-11-28T07:07:20.540Z,12.88
2022-11-28T07:09:47.124Z,10.43
2022-11-28T07:12:14.062Z,15.45
2022-11-28T07:14:40.517Z,10.60
2022-11-28T07:17:07.103Z,11.77
2022-11-28T07:19:34.340Z,14.20
2022-11-28T07:22:00.918Z,14.80
2022-11-28T07:24:27.541Z,15.80
2022-11-28T07:26:53.964Z,11.82
2022-11-28T07:29:20.467Z,10.15
2022-11-28T07:31:47.007Z,12.63
2022-11-28T07:34:13.544Z,9.52
2022-11-28T07:36:40.303Z,10.32
2022-11-28T07:39:10.766Z,12.93
2022-11-28T07:41:37.323Z,11.55
2022-11-28T07:44:04.897Z,9.65
2022-11-28T07:46:33.427Z,11.80
2022-11-28T07:49:00.411Z,9.93
2022-11-28T07:51:31.683Z,12.75
2022-11-28T07:53:58.898Z,11.43
2022-11-28T07:56:39.313Z,14.02
2022-11-28T07:59:12.017Z,11.00
2022-11-28T08:01:40.189Z,12.15
2022-11-28T08:04:09.264Z,10.50
2022-11-28T08:06:38.867Z,10.70
2022-11-28T08:09:07.096Z,10.45
2022-11-28T08:11:34.052Z,9.90
2022-11-28T08:14:01.801Z,15.93
2022-11-28T08:16:29.756Z,20.00
2022-11-28T08:18:56.840Z,15.50
2022-11-28T08:21:25.939Z,13.48
2022-11-28T08:23:54.001Z,18.60
2022-11-28T08:26:26.009Z,14.98
2022-11-28T08:28:55.963Z,14.43
2022-11-28T08:31:30.970Z,18.67
2022-11-28T08:34:00.112Z,22.33
2022-11-28T08:36:29.143Z,15.63
2022-11-28T08:39:17.040Z,18.38
2022-11-28T08:41:42.853Z,18.73
2022-11-28T08:44:09.340Z,19.98
2022-11-28T08:46:36.647Z,19.25
2022-11-28T08:49:04.684Z,14.50
2022-11-28T08:51:31.842Z,9.80
2022-11-28T08:53:59.802Z,13.95
2022-11-28T08:56:26.894Z,26.17
2022-11-28T08:58:53.494Z,14.18
2022-11-28T09:01:25.108Z,53.05
2022-11-28T09:03:52.777Z,49.30
2022-11-28T09:06:21.045Z,27.70
2022-11-28T09:08:48.595Z,18.50
2022-11-28T09:11:17.509Z,14.77
2022-11-28T09:13:44.832Z,12.40
2022-11-28T09:16:12.293Z,12.70
2022-11-28T09:18:38.977Z,12.13
2022-11-28T09:21:09.307Z,13.30
2022-11-28T09:23:41.128Z,9.13
2022-11-28T09:26:21.377Z,19.40
2022-11-28T09:28:47.973Z,18.15
2022-11-28T09:31:16.050Z,14.32
2022-11-28T09:33:43.582Z,18.75
2022-11-28T09:36:15.260Z,11.15
2022-11-28T09:38:42.088Z,13.27
2022-11-28T09:41:32.857Z,13.55
2022-11-28T09:44:06.846Z,17.00
2022-11-28T09:46:37.350Z,9.18
2022-11-28T09:49:24.223Z,15.43
2022-11-28T09:51:58.599Z,9.82
2022-11-28T09:54:36.955Z,14.00
2022-11-28T09:57:12.108Z,8.10
2022-11-28T09:59:38.735Z,10.07
2022-11-28T10:02:32.802Z,8.90
2022-11-28T10:05:32.181Z,14.30
2022-11-28T10:08:01.566Z,8.55
2022-11-28T10:10:50.285Z,9.98
2022-11-28T10:13:24.399Z,12.23
2022-11-28T10:16:12.349Z,7.32
2022-11-28T10:19:03.253Z,8.48
2022-11-28T10:21:47.114Z,6.07
2022-11-28T10:24:19.699Z,9.70
2022-11-28T10:26:58.693Z,8.15
2022-11-28T10:29:47.275Z,10.10
2022-11-28T10:32:17.664Z,11.63
2022-11-28T10:35:27.870Z,10.65
2022-11-28T10:37:55.075Z,11.88
2022-11-28T10:40:32.329Z,13.57
2022-11-28T10:43:19.214Z,16.05
2022-11-28T10:46:02.160Z,13.75
2022-11-28T10:48:40.074Z,15.88
2022-11-28T10:51:22.143Z,10.07
2022-11-28T10:54:10.552Z,13.65
2022-11-28T10:56:47.261Z,14.40
2022-11-28T10:59:23.915Z,12.93
2022-11-28T11:01:52.157Z,14.82
2022-11-28T11:04:22.878Z,13.10
2022-11-28T11:07:13.822Z,12.93
2022-11-28T11:09:45.390Z,15.88
2022-11-28T11:12:31.317Z,12.35
2022-11-28T11:14:58.227Z,16.77
2022-11-28T11:17:36.143Z,13.40
2022-11-28T11:20:39.152Z,16.02
2022-11-28T11:23:12.304Z,20.55
2022-11-28T11:25:47.255Z,15.07
2022-11-28T11:28:32.155Z,17.75
2022-11-28T11:31:24.009Z,20.33
2022-11-28T11:34:04.201Z,20.60
2022-11-28T11:36:39.666Z,22.27
2022-11-28T11:39:10.829Z,21.98
2022-11-28T11:41:39.589Z,20.65
2022-11-28T11:44:15.213Z,20.65
2022-11-28T11:47:01.755Z,22.27
2022-11-28T11:49:34.012Z,18.15
2022-11-28T11:52:17.303Z,19.05
2022-11-28T11:57:34.984Z,18.90
2022-11-28T12:00:14.758Z,15.55
2022-11-28T12:02:54.901Z,11.45
2022-11-28T12:06:12.297Z,16.40
2022-11-28T12:08:54.394Z,18.88
2022-11-28T12:11:46.757Z,17.42
2022-11-28T12:14:35.162Z,10.05
2022-11-28T12:20:35.335Z,14.07
2022-11-28T12:23:17.684Z,14.75
2022-11-28T12:25:44.309Z,8.98
2022-11-28T12:28:48.762Z,15.73
2022-11-28T12:31:22.385Z,10.13
2022-11-28T12:33:57.795Z,14.32
2022-11-28T12:36:36.596Z,10.10
2022-11-28T12:39:25.268Z,10.82
2022-11-28T12:42:09.235Z,12.63
2022-11-28T12:44:41.957Z,8.27
2022-11-28T12:47:39.341Z,6.75
2022-11-28T12:50:31.895Z,8.82
2022-11-28T12:53:37.024Z,8.02
2022-11-28T12:56:18.343Z,7.03
2022-11-28T12:59:15.319Z,7.95
2022-11-28T13:02:04.040Z,10.95
2022-11-28T13:05:12.301Z,12.02
2022-11-28T13:07:41.762Z,8.95
2022-11-28T13:10:34.283Z,12.80
2022-11-28T13:13:10.101Z,15.30
2022-11-28T13:15:44.257Z,12.32
2022-11-28T13:18:25.961Z,11.98
2022-11-28T13:21:27.522Z,7.63
2022-11-28T13:24:07.352Z,6.57
2022-11-28T13:27:00.330Z,10.18
2022-11-28T13:29:35.743Z,9.32
2022-11-28T13:32:15.391Z,13.77
2022-11-28T13:34:42.481Z,10.40
2022-11-28T13:40:37.157Z,7.82
2022-11-28T13:43:23.932Z,8.90
2022-11-28T13:45:52.601Z,10.48
2022-11-28T13:49:13.323Z,8.77
2022-11-28T13:51:30.908Z,9.00
2022-11-28T13:54:17.235Z,8.23
2022-11-28T13:57:04.037Z,7.25
2022-11-28T13:59:31.868Z,7.60
2022-11-28T14:02:02.300Z,13.45
2022-11-28T14:04:31.169Z,7.80
2022-11-28T14:07:07.163Z,10.27
2022-11-28T14:09:36.336Z,9.23
2022-11-28T14:12:21.092Z,8.63
2022-11-28T14:14:56.575Z,6.15
2022-11-28T14:17:32.046Z,7.55
2022-11-28T14:20:16.521Z,6.70
2022-11-28T14:23:20.240Z,9.90
2022-11-28T14:25:50.190Z,12.75
2022-11-28T14:28:30.436Z,15.52
2022-11-28T14:31:29.090Z,20.20
2022-11-28T14:34:01.777Z,7.03
2022-11-28T14:36:31.268Z,15.13
2022-11-28T14:39:15.849Z,21.40
2022-11-28T14:42:04.429Z,14.93
2022-11-28T14:44:50.683Z,12.63
2022-11-28T14:47:32.007Z,15.68
2022-11-28T14:50:20.620Z,15.88
2022-11-28T14:52:48.014Z,9.20
2022-11-28T14:55:21.538Z,9.88
2022-11-28T14:57:53.772Z,9.05
2022-11-28T15:00:43.829Z,11.45
2022-11-28T15:03:18.265Z,8.60
2022-11-28T15:05:48.687Z,9.65
2022-11-28T15:08:33.263Z,9.23
2022-11-28T15:11:32.243Z,9.73
2022-11-28T15:14:09.416Z,20.00
2022-11-28T15:16:46.596Z,11.88
2022-11-28T15:19:39.222Z,18.85
2022-11-28T15:24:38.144Z,10.65
2022-11-28T15:27:07.404Z,15.88
2022-11-28T15:29:35.517Z,16.20
2022-11-28T15:32:02.687Z,19.83
2022-11-28T15:34:31.992Z,18.10
2022-11-28T15:37:16.684Z,11.77
2022-11-28T15:39:46.668Z,19.55
2022-11-28T15:42:22.361Z,15.10
2022-11-28T15:44:56.718Z,6.35
2022-11-28T15:47:24.426Z,7.35
2022-11-28T15:50:22.138Z,6.97
2022-11-28T15:53:14.377Z,9.23
2022-11-28T15:55:40.865Z,8.27
2022-11-28T15:58:28.853Z,9.05
2022-11-28T16:01:13.455Z,7.85
2022-11-28T16:03:48.841Z,9.93
2022-11-28T16:06:18.118Z,10.98
2022-11-28T16:08:51.324Z,8.88
2022-11-28T16:11:20.893Z,10.75
2022-11-28T16:13:48.210Z,11.18
2022-11-28T16:16:18.258Z,9.73
2022-11-28T16:18:58.016Z,10.27
2022-11-28T16:21:46.670Z,13.27
2022-11-28T16:24:23.366Z,14.93
2022-11-28T16:26:59.862Z,12.77
2022-11-28T16:29:34.664Z,11.23
2022-11-28T16:32:26.430Z,9.38
2022-11-28T16:34:55.072Z,16.17
2022-11-28T16:37:24.849Z,11.27
2022-11-28T16:40:15.295Z,11.20
2022-11-28T16:42:41.810Z,10.15
2022-11-28T16:45:17.439Z,9.80
2022-11-28T16:47:45.680Z,13.60
2022-11-28T16:50:21.825Z,9.27
2022-11-28T16:52:53.647Z,10.25
2022-11-28T16:55:29.104Z,8.35
2022-11-28T16:58:11.489Z,10.88
2022-11-28T17:00:42.191Z,19.90
2022-11-28T17:05:55.030Z,22.25
2022-11-28T17:08:24.867Z,22.85
2022-11-28T17:10:54.071Z,26.13
2022-11-28T17:13:20.539Z,19.90
2022-11-28T17:15:47.012Z,20.48
2022-11-28T17:18:13.486Z,25.17
2022-11-28T17:20:40.003Z,21.77
2022-11-28T17:23:06.541Z,19.60
2022-11-28T17:25:33.038Z,24.50
2022-11-28T17:27:59.802Z,22.00
2022-11-28T17:30:26.260Z,26.30
2022-11-28T17:32:53.008Z,24.08
2022-11-28T17:35:24.713Z,14.35
2022-11-28T17:37:51.223Z,22.88
2022-11-28T17:40:36.907Z,27.00
2022-11-28T17:43:03.736Z,21.33
2022-11-28T17:45:33.906Z,27.42
2022-11-28T17:48:00.417Z,27.05
2022-11-28T17:50:26.990Z,23.90
2022-11-28T17:52:53.536Z,29.70
2022-11-28T17:55:20.716Z,28.35
2022-11-28T17:57:47.400Z,26.13
2022-11-28T18:00:15.267Z,25.65
2022-11-28T18:02:42.030Z,24.35
2022-11-28T18:05:09.302Z,16.02
2022-11-28T18:07:35.872Z,20.33
2022-11-28T18:10:02.389Z,27.02
2022-11-28T18:12:28.979Z,26.15
2022-11-28T18:14:55.524Z,26.35
2022-11-28T18:17:22.053Z,16.27
2022-11-28T18:19:52.048Z,26.23
2022-11-28T18:22:21.046Z,22.30
2022-11-28T18:24:47.687Z,25.52
2022-11-28T18:27:14.200Z,23.73
2022-11-28T18:29:40.786Z,21.25
2022-11-28T18:32:07.404Z,21.63
2022-11-28T18:34:34.048Z,20.30
2022-11-28T18:37:00.870Z,24.92
2022-11-28T18:39:27.848Z,21.17
2022-11-28T18:41:54.437Z,27.50
2022-11-28T18:44:20.922Z,19.52
2022-11-28T18:46:47.413Z,18.13
2022-11-28T18:49:15.207Z,21.20
2022-11-28T18:51:41.762Z,21.20
2022-11-28T18:54:09.736Z,24.00
2022-11-28T18:56:36.314Z,32.58
2022-11-28T18:59:02.983Z,29.00
2022-11-28T19:01:32.371Z,21.70
2022-11-28T19:04:17.194Z,26.38
2022-11-28T19:06:44.420Z,33.88
2022-11-28T19:09:14.070Z,24.85
2022-11-28T19:11:41.195Z,20.40
2022-11-28T19:14:08.284Z,26.30
2022-11-28T19:16:37.568Z,16.88
2022-11-28T19:19:05.879Z,15.32
2022-11-28T19:21:34.797Z,29.05
2022-11-28T19:24:03.839Z,27.98
2022-11-28T19:26:31.492Z,22.15
2022-11-28T19:29:01.388Z,30.65
2022-11-28T19:31:30.576Z,30.75
2022-11-28T19:34:05.713Z,26.88
2022-11-28T19:36:39.294Z,24.00
2022-11-28T19:39:07.001Z,24.63
2022-11-28T19:41:33.532Z,25.77
2022-11-28T19:44:00.302Z,25.60
2022-11-28T19:46:31.846Z,27.55
2022-11-28T19:49:00.376Z,23.15
2022-11-28T19:51:26.860Z,20.20
2022-11-28T19:53:56.209Z,19.63
2022-11-28T19:56:25.349Z,17.35
2022-11-28T19:58:52.131Z,12.07
2022-11-28T20:01:20.990Z,12.98
2022-11-28T20:03:48.763Z,13.10
2022-11-28T20:06:19.224Z,11.23
2022-11-28T20:08:47.045Z,12.25
2022-11-28T20:11:13.600Z,26.95
2022-11-28T20:13:41.661Z,20.85
2022-11-28T20:16:09.422Z,26.42
2022-11-28T20:18:37.998Z,25.90
2022-11-28T20:21:13.301Z,27.00
2022-11-28T20:23:42.052Z,27.92
2022-11-28T20:26:09.810Z,25.23
2022-11-28T20:28:38.110Z,25.05
2022-11-28T20:31:05.057Z,21.70
2022-11-28T20:33:32.310Z,17.10
2022-11-28T20:36:10.124Z,14.30
2022-11-28T20:38:37.085Z,13.68
2022-11-28T20:41:08.971Z,11.55
2022-11-28T20:43:38.456Z,14.57
2022-11-28T20:46:11.387Z,11.98
2022-11-28T20:48:39.031Z,17.30
2022-11-28T20:51:10.174Z,20.92
2022-11-28T20:53:39.326Z,26.38
2022-11-28T20:56:08.550Z,16.45
2022-11-28T20:58:35.070Z,17.38
2022-11-28T21:01:01.605Z,13.60
2022-11-28T21:03:28.191Z,13.98
2022-11-28T21:06:00.721Z,22.08
2022-11-28T21:08:30.409Z,20.73
2022-11-28T21:10:57.271Z,19.98
2022-11-28T21:13:23.867Z,22.42
2022-11-28T21:15:50.750Z,16.10
2022-11-28T21:18:17.752Z,16.48
2022-11-28T21:20:46.112Z,20.05
2022-11-28T21:23:14.666Z,24.20
2022-11-28T21:25:42.682Z,21.38
2022-11-28T21:28:10.293Z,35.88
2022-11-28T21:30:45.959Z,20.27
2022-11-28T21:33:13.259Z,22.15
2022-11-28T21:35:40.290Z,28.33
2022-11-28T21:38:07.397Z,24.08
2022-11-28T21:40:33.913Z,20.90
2022-11-28T21:43:00.453Z,26.20
2022-11-28T21:45:26.940Z,23.00
2022-11-28T21:47:53.450Z,19.98
2022-11-28T21:50:19.900Z,17.73
2022-11-28T21:52:46.438Z,24.52
2022-11-28T21:55:12.903Z,29.65
2022-11-28T21:57:42.034Z,27.05
2022-11-28T22:00:20.724Z,30.88
2022-11-28T22:03:01.273Z,28.55
2022-11-28T22:05:31.660Z,34.28
2022-11-28T22:07:58.388Z,24.88
2022-11-28T22:13:10.297Z,36.67
2022-11-28T22:15:41.147Z,31.58
2022-11-28T22:18:07.646Z,31.55
2022-11-28T22:20:37.526Z,30.63
2022-11-28T22:23:06.637Z,30.52
2022-11-28T22:25:33.078Z,33.28
2022-11-28T22:28:00.989Z,30.10
2022-11-28T22:30:27.557Z,28.90
2022-11-28T22:32:54.026Z,32.67
2022-11-28T22:35:20.788Z,39.97
2022-11-28T22:37:47.271Z,42.47
2022-11-28T22:40:14.549Z,30.02
2022-11-28T22:42:40.986Z,30.90
2022-11-28T22:45:09.183Z,28.35
2022-11-28T22:47:35.640Z,31.38
2022-11-28T22:50:02.130Z,34.95
2022-11-28T22:52:29.379Z,35.75
2022-11-28T22:54:55.814Z,32.03
2022-11-28T22:57:22.252Z,35.45
2022-11-28T22:59:48.669Z,31.80
2022-11-28T23:02:15.309Z,34.72
2022-11-28T23:04:42.090Z,28.35
2022-11-28T23:07:08.917Z,33.63
2022-11-28T23:09:35.424Z,27.50
2022-11-28T23:12:01.986Z,32.83
2022-11-28T23:14:28.438Z,33.10
2022-11-28T23:16:55.010Z,29.23
2022-11-28T23:19:21.487Z,27.60
2022-11-28T23:21:49.707Z,30.13
2022-11-28T23:24:18.744Z,36.78
2022-11-28T23:26:46.156Z,31.45
2022-11-28T23:29:13.748Z,31.45
2022-11-28T23:31:44.727Z,30.70
2022-11-28T23:34:11.702Z,29.85
2022-11-28T23:36:43.508Z,29.42
2022-11-28T23:39:16.547Z,24.98
2022-11-28T23:41:43.072Z,29.15
2022-11-28T23:44:11.660Z,34.55
2022-11-28T23:46:38.899Z,30.30
2022-11-28T23:49:05.997Z,34.20
2022-11-28T23:51:32.674Z,31.75
2022-11-28T23:53:59.566Z,27.75
2022-11-28T23:56:29.101Z,16.60
2022-11-28T23:58:57.360Z,14.95
